Grocka — YT2457 — position and weather

sailwx.info

Track history (hours):
 
Tides and Currents Weather Stations Pressure Air Temp Water Temp Dewpoint Dewpoint Depression Visibility Wind Speed Wind Dir Waves Ship Positions

Grocka

Last reported at 2017-Oct-17 11:58 UTC. Time now 2017-Oct-17 17:03 UTC.
Position N 45°14' E 020°19'.

Length 126 m; draft 2.2 m.

Type: Ship. MMSI: 279202457.

Date/timePositionNaut miles runAvg speedWind from/ knotsBaromVisibWave heightAir tempDewpointWater temp
2017-Oct-17 11:58N 45°14' E 020°19'2 3.5
2017-Oct-17 11:31N 45°12' E 020°19'2 3.1
2017-Oct-17 10:58N 45°11' E 020°17'1 2.9
2017-Oct-17 10:31N 45°09' E 020°17'2 2.9
2017-Oct-17 09:58N 45°08' E 020°17'1 2.0
2017-Oct-17 09:30N 45°07' E 020°17'1 2.2
2017-Oct-17 09:01N 45°06' E 020°18'1 1.9
2017-Oct-17 08:30N 45°05' E 020°19'1 2.1
2017-Oct-17 08:00N 45°04' E 020°20'1 2.1
2017-Oct-17 07:31N 45°04' E 020°21'1 1.9
2017-Oct-17 07:01N 45°03' E 020°21'1 2.0
2017-Oct-17 06:31N 45°02' E 020°22'1 2.0
2017-Oct-17 06:01N 45°01' E 020°22'1 1.8
2017-Oct-17 05:31N 45°00' E 020°21'1 2.3
2017-Oct-17 05:01N 44°60' E 020°19'1 1.8
2017-Oct-17 04:30N 44°59' E 020°18'0 0.0
2017-Oct-17 04:01N 44°59' E 020°18'0 0.0
2017-Oct-17 03:31N 44°59' E 020°18'0 0.0
2017-Oct-17 03:00N 44°59' E 020°18'0 0.0
2017-Oct-17 02:31N 44°59' E 020°18'0 0.0
2017-Oct-17 02:01N 44°59' E 020°18'0 0.0
2017-Oct-17 01:31N 44°59' E 020°18'0 0.0
2017-Oct-17 01:01N 44°59' E 020°18'0 0.0
2017-Oct-17 00:31N 44°59' E 020°18'0 0.0
2017-Oct-17 00:01N 44°59' E 020°18'0 0.0
2017-Oct-16 23:31N 44°59' E 020°18'0 0.0
2017-Oct-16 23:00N 44°59' E 020°18'0 0.0
2017-Oct-16 22:30N 44°59' E 020°18'1 1.4
2017-Oct-16 22:01N 44°59' E 020°17'1 2.1
2017-Oct-16 21:31N 44°58' E 020°17'1 2.0
2017-Oct-16 21:01N 44°57' E 020°18'1 2.3
2017-Oct-16 20:31N 44°56' E 020°19'1 2.3
2017-Oct-16 20:01N 44°55' E 020°20'1 2.2
2017-Oct-16 19:31N 44°54' E 020°21'1 2.2
2017-Oct-16 19:00N 44°53' E 020°21'1 2.4
2017-Oct-16 18:29N 44°52' E 020°22'1 2.2
2017-Oct-16 18:00N 44°52' E 020°24'1 2.0
2017-Oct-16 17:31N 44°51' E 020°25'1 2.3
2017-Oct-16 17:00N 44°50' E 020°26'1 2.5
2017-Oct-16 16:30N 44°50' E 020°28'2 2.6
2017-Oct-16 15:43N 44°50' E 020°31'1 2.7
2017-Oct-16 15:30N 44°50' E 020°32'1 2.8
2017-Oct-16 15:00N 44°51' E 020°33'3 2.7
2017-Oct-16 14:00N 44°51' E 020°37'1 1.9
2017-Oct-16 13:30N 44°51' E 020°38'0 0.8
2017-Oct-16 13:00N 44°51' E 020°39'0 0.6
2017-Oct-16 12:30N 44°51' E 020°38'1 1.5
2017-Oct-16 12:00N 44°51' E 020°38'0 0.0
2017-Oct-16 11:30N 44°51' E 020°38'0 0.0
2017-Oct-16 11:00N 44°51' E 020°38'0 0.0
2017-Oct-16 10:30N 44°51' E 020°38'0 0.0
2017-Oct-16 10:00N 44°51' E 020°38'0 0.0
2017-Oct-16 09:30N 44°51' E 020°38'0 0.0
2017-Oct-16 09:00N 44°51' E 020°38'0 0.0
2017-Oct-16 08:30N 44°51' E 020°38'0 0.0
2017-Oct-16 08:00N 44°51' E 020°38'0 0.2
2017-Oct-16 07:30N 44°51' E 020°38'1 1.9
2017-Oct-16 07:00N 44°50' E 020°38'1 2.8
2017-Oct-16 06:30N 44°49' E 020°38'2 3.0
2017-Oct-16 06:00N 44°47' E 020°38'2 2.7
2017-Oct-16 05:26N 44°46' E 020°38'1 2.8
2017-Oct-16 05:01N 44°45' E 020°39'4 2.8
2017-Oct-16 03:44N 44°42' E 020°42'1 2.8
2017-Oct-16 03:31N 44°42' E 020°43'1 1.5
2017-Oct-16 03:00N 44°41' E 020°44'0 0.0
2017-Oct-16 02:31N 44°41' E 020°44'0 0.0
2017-Oct-16 02:01N 44°41' E 020°44'0 0.0
2017-Oct-16 01:31N 44°41' E 020°44'0 0.0
2017-Oct-16 01:01N 44°41' E 020°44'0 0.0
2017-Oct-16 00:31N 44°41' E 020°44'0 0.0
2017-Oct-16 00:01N 44°41' E 020°44'0 0.0
2017-Oct-15 23:31N 44°41' E 020°44'0 0.0
2017-Oct-15 23:01N 44°41' E 020°44'0 0.0
2017-Oct-15 22:31N 44°41' E 020°44'0 0.0
2017-Oct-15 22:00N 44°41' E 020°44'0 0.3
2017-Oct-15 21:31N 44°41' E 020°44'1 2.9
2017-Oct-15 21:00N 44°40' E 020°45'1 2.9
2017-Oct-15 20:30N 44°40' E 020°47'1 2.8
2017-Oct-15 20:00N 44°40' E 020°49'2 3.0
2017-Oct-15 19:30N 44°40' E 020°51'2 3.0
2017-Oct-15 19:01N 44°40' E 020°53'1 2.9
2017-Oct-15 18:31N 44°40' E 020°55'2 3.1
2017-Oct-15 18:00N 44°41' E 020°57'1 2.9
2017-Oct-15 17:31N 44°42' E 020°58'1 2.9
2017-Oct-15 17:01N 44°43' E 021°00'1 2.9
2017-Oct-15 16:31N 44°43' E 021°02'2 3.0
2017-Oct-15 15:47N 44°43' E 021°05'1 2.8
2017-Oct-15 15:30N 44°44' E 021°06'1 1.6
2017-Oct-15 15:00N 44°44' E 021°07'0 0.1
2017-Oct-15 14:00N 44°44' E 021°07'0 0.0
2017-Oct-15 13:31N 44°44' E 021°07'0 0.4
2017-Oct-15 13:01N 44°44' E 021°07'1 1.1
2017-Oct-15 12:31N 44°45' E 021°07'0 0.9
2017-Oct-15 12:01N 44°45' E 021°07'1 1.3
2017-Oct-15 11:30N 44°44' E 021°07'0 0.0
2017-Oct-15 11:01N 44°44' E 021°07'0 0.0
2017-Oct-15 10:31N 44°44' E 021°07'0 0.0
2017-Oct-15 10:01N 44°44' E 021°07'0 0.0
2017-Oct-15 09:31N 44°44' E 021°07'0 0.0
2017-Oct-15 08:55N 44°44' E 021°07'0 0.7
2017-Oct-15 08:31N 44°44' E 021°07'0 0.0
2017-Oct-15 08:01N 44°44' E 021°07'0 0.0
2017-Oct-15 07:31N 44°44' E 021°07'0 0.0
2017-Oct-15 07:01N 44°44' E 021°07'0 0.0
2017-Oct-15 06:31N 44°44' E 021°07'0 0.0
2017-Oct-15 06:01N 44°44' E 021°07'0 0.0
2017-Oct-15 05:31N 44°44' E 021°07'0 0.0
2017-Oct-15 05:01N 44°44' E 021°07'0 0.0
2017-Oct-15 04:31N 44°44' E 021°07'0 0.0
2017-Oct-14 23:18N 44°44' E 021°07'4 2.1
2017-Oct-14 21:27N 44°43' E 021°02'4 5.6
2017-Oct-14 20:49N 44°42' E 020°57'4 5.8
2017-Oct-14 20:11N 44°40' E 020°53'1 6.0
2017-Oct-14 20:01N 44°40' E 020°52'3 6.1
2017-Oct-14 19:30N 44°39' E 020°48'3 6.0
2017-Oct-14 19:00N 44°41' E 020°44'3 6.0
2017-Oct-14 18:30N 44°43' E 020°41'3 6.0
2017-Oct-14 18:00N 44°45' E 020°38'3 5.7
2017-Oct-14 17:30N 44°48' E 020°38'3 5.5
2017-Oct-14 17:00N 44°51' E 020°38'3 5.6
2017-Oct-14 16:30N 44°51' E 020°34'4 5.8
2017-Oct-14 15:51N 44°50' E 020°29'2 6.1
2017-Oct-14 15:30N 44°50' E 020°26'3 6.5
2017-Oct-14 15:00N 44°52' E 020°22'3 6.3
2017-Oct-14 14:30N 44°55' E 020°20'3 6.7
2017-Oct-14 14:00N 44°58' E 020°17'3 5.6
2017-Oct-14 13:30N 44°60' E 020°20'3 5.7
2017-Oct-14 13:00N 45°03' E 020°22'4 6.8
2017-Oct-14 12:29N 45°05' E 020°19'3 6.7
2017-Oct-14 12:00N 45°08' E 020°17'3 4.5
2017-Oct-14 11:23N 45°11' E 020°18'2 5.3
2017-Oct-14 11:00N 45°13' E 020°19'  
2017-Oct-10 20:21N 45°05' E 020°20'1 2.2
2017-Oct-10 20:00N 45°04' E 020°20'1 2.1
2017-Oct-10 19:30N 45°03' E 020°21'1 1.9
2017-Oct-10 19:00N 45°02' E 020°22'1 2.0
2017-Oct-10 18:30N 45°01' E 020°22'1 2.1
2017-Oct-10 18:00N 45°00' E 020°21'1 2.3
2017-Oct-10 17:30N 44°60' E 020°20'1 2.4
2017-Oct-10 17:00N 44°59' E 020°18'1 2.4
2017-Oct-10 16:30N 44°58' E 020°17'1 2.3
2017-Oct-10 16:00N 44°57' E 020°18'1 2.7
2017-Oct-10 15:30N 44°56' E 020°19'1 2.4
2017-Oct-10 15:00N 44°55' E 020°20'2 2.4
2017-Oct-10 14:00N 44°53' E 020°22'1 2.4
2017-Oct-10 13:30N 44°52' E 020°23'1 2.4
2017-Oct-10 13:00N 44°51' E 020°24'1 2.6
2017-Oct-10 12:30N 44°51' E 020°26'1 2.5
2017-Oct-10 12:00N 44°50' E 020°27'1 2.7
2017-Oct-10 11:30N 44°50' E 020°29'1 2.8
2017-Oct-10 11:00N 44°50' E 020°31'1 2.9
2017-Oct-10 10:30N 44°50' E 020°33'2 3.0
2017-Oct-10 10:00N 44°51' E 020°35'1 2.8
2017-Oct-10 09:31N 44°51' E 020°37'1 3.0
2017-Oct-10 09:00N 44°50' E 020°38'1 2.9
2017-Oct-10 08:30N 44°49' E 020°38'2 3.1
2017-Oct-10 08:00N 44°47' E 020°38'2 3.0
2017-Oct-10 07:30N 44°46' E 020°38'1 2.9
2017-Oct-10 07:00N 44°45' E 020°39'3 3.1
2017-Oct-10 05:55N 44°42' E 020°42'1 3.1
2017-Oct-10 05:30N 44°41' E 020°43'2 3.1
2017-Oct-10 05:00N 44°40' E 020°45'2 3.0
2017-Oct-10 04:29N 44°40' E 020°47'2 2.9
2017-Oct-10 03:55N 44°40' E 020°49'2 3.1
2017-Oct-10 03:26N 44°40' E 020°51'1 0.1
2017-Oct-09 21:09N 44°40' E 020°53'0 0.0
2017-Oct-09 21:00N 44°40' E 020°53'0 0.7
2017-Oct-09 20:30N 44°40' E 020°53'1 3.0
2017-Oct-09 20:00N 44°40' E 020°55'4 3.1
2017-Oct-09 18:48N 44°43' E 020°59'1 3.0
2017-Oct-09 18:30N 44°43' E 021°00'2 3.0
2017-Oct-09 18:00N 44°43' E 021°02'0 0.3
2017-Oct-09 17:30N 44°43' E 021°02'2 3.0
2017-Oct-09 17:00N 44°41' E 021°03'1 0.1
2017-Oct-08 19:31N 44°40' E 021°03'0 4.5
2017-Oct-08 19:30N 44°40' E 021°03'2 3.8
2017-Oct-08 19:00N 44°42' E 021°02'1 2.6
2017-Oct-08 18:31N 44°43' E 021°01'2 4.7
2017-Oct-08 18:00N 44°42' E 020°58'2 3.7
2017-Oct-08 17:30N 44°41' E 020°56'2 4.4
2017-Oct-08 17:00N 44°40' E 020°54'2 4.6
2017-Oct-08 16:30N 44°39' E 020°51'2 4.6
2017-Oct-08 16:00N 44°39' E 020°47'2 4.6
2017-Oct-08 15:30N 44°40' E 020°44'2 4.4
2017-Oct-08 15:00N 44°42' E 020°42'2 4.4
2017-Oct-08 14:30N 44°44' E 020°41'2 4.5
2017-Oct-08 14:00N 44°45' E 020°38'2 4.2
2017-Oct-08 13:30N 44°47' E 020°38'2 4.4
2017-Oct-08 13:00N 44°49' E 020°39'2 3.2
2017-Oct-08 12:30N 44°51' E 020°38'1 1.2
2017-Oct-08 12:00N 44°51' E 020°38'0 0.0
2017-Oct-08 11:30N 44°51' E 020°38'0 0.0
2017-Oct-08 11:00N 44°51' E 020°38'0 0.0
2017-Oct-08 10:30N 44°51' E 020°38'0 0.9
2017-Oct-08 10:00N 44°51' E 020°38'2 4.2
2017-Oct-08 09:30N 44°51' E 020°35'2 4.6
2017-Oct-08 09:00N 44°50' E 020°32'2 4.4
2017-Oct-08 08:30N 44°50' E 020°29'2 4.6
2017-Oct-08 08:00N 44°51' E 020°26'2 4.9
2017-Oct-08 07:30N 44°52' E 020°23'2 4.7
2017-Oct-08 07:00N 44°54' E 020°21'2 4.8
2017-Oct-08 06:30N 44°56' E 020°19'2 5.0
2017-Oct-08 06:00N 44°58' E 020°17'2 4.4
2017-Oct-08 05:30N 44°60' E 020°19'2 5.0
2017-Oct-08 05:00N 45°01' E 020°22'2 5.0
2017-Oct-08 04:30N 45°03' E 020°21'3 5.1
2017-Oct-08 04:00N 45°05' E 020°19'3 5.0
2017-Oct-08 03:30N 45°08' E 020°17'1 1.6
2017-Oct-08 03:00N 45°08' E 020°17'0 0.0
2017-Oct-08 02:30N 45°08' E 020°17'0 0.0
2017-Oct-08 02:00N 45°08' E 020°17'0 0.0
2017-Oct-08 01:30N 45°08' E 020°17'0 0.0
2017-Oct-08 01:00N 45°08' E 020°17'0 0.0
2017-Oct-08 00:31N 45°08' E 020°17'0 0.0
2017-Oct-08 00:00N 45°08' E 020°17'0 0.0
2017-Oct-07 23:30N 45°08' E 020°17'0 0.0
2017-Oct-07 23:00N 45°08' E 020°17'0 0.0
2017-Oct-07 22:30N 45°08' E 020°17'0 0.0
2017-Oct-07 22:01N 45°08' E 020°17'0 0.0
2017-Oct-07 21:30N 45°08' E 020°17'0 0.0
2017-Oct-07 21:00N 45°08' E 020°17'1 1.5
2017-Oct-07 20:30N 45°09' E 020°17'2 3.2
2017-Oct-07 19:59N 45°11' E 020°17'2 3.4
2017-Oct-07 19:30N 45°12' E 020°19'2 3.8
2017-Oct-07 19:00N 45°14' E 020°18'  
Track history (hours):
 
Tides and Currents Weather Stations Pressure Air Temp Water Temp Dewpoint Dewpoint Depression Visibility Wind Speed Wind Dir Waves Ship Positions

Grocka

Last reported at 2017-Oct-17 11:58 UTC. Time now 2017-Oct-17 17:03 UTC.
Position N 45°14' E 020°19'.

Length 126 m; draft 2.2 m.

Type: Ship. MMSI: 279202457.

Date/timePositionNaut miles runAvg speedWind from/ knotsBaromVisibWave heightAir tempDewpointWater temp
2017-Oct-17 11:58N 45°14' E 020°19'2 3.5
2017-Oct-17 11:31N 45°12' E 020°19'2 3.1
2017-Oct-17 10:58N 45°11' E 020°17'1 2.9
2017-Oct-17 10:31N 45°09' E 020°17'2 2.9
2017-Oct-17 09:58N 45°08' E 020°17'1 2.0
2017-Oct-17 09:30N 45°07' E 020°17'1 2.2
2017-Oct-17 09:01N 45°06' E 020°18'1 1.9
2017-Oct-17 08:30N 45°05' E 020°19'1 2.1
2017-Oct-17 08:00N 45°04' E 020°20'1 2.1
2017-Oct-17 07:31N 45°04' E 020°21'1 1.9
2017-Oct-17 07:01N 45°03' E 020°21'1 2.0
2017-Oct-17 06:31N 45°02' E 020°22'1 2.0
2017-Oct-17 06:01N 45°01' E 020°22'1 1.8
2017-Oct-17 05:31N 45°00' E 020°21'1 2.3
2017-Oct-17 05:01N 44°60' E 020°19'1 1.8
2017-Oct-17 04:30N 44°59' E 020°18'0 0.0
2017-Oct-17 04:01N 44°59' E 020°18'0 0.0
2017-Oct-17 03:31N 44°59' E 020°18'0 0.0
2017-Oct-17 03:00N 44°59' E 020°18'0 0.0
2017-Oct-17 02:31N 44°59' E 020°18'0 0.0
2017-Oct-17 02:01N 44°59' E 020°18'0 0.0
2017-Oct-17 01:31N 44°59' E 020°18'0 0.0
2017-Oct-17 01:01N 44°59' E 020°18'0 0.0
2017-Oct-17 00:31N 44°59' E 020°18'0 0.0
2017-Oct-17 00:01N 44°59' E 020°18'0 0.0
2017-Oct-16 23:31N 44°59' E 020°18'0 0.0
2017-Oct-16 23:00N 44°59' E 020°18'0 0.0
2017-Oct-16 22:30N 44°59' E 020°18'1 1.4
2017-Oct-16 22:01N 44°59' E 020°17'1 2.1
2017-Oct-16 21:31N 44°58' E 020°17'1 2.0
2017-Oct-16 21:01N 44°57' E 020°18'1 2.3
2017-Oct-16 20:31N 44°56' E 020°19'1 2.3
2017-Oct-16 20:01N 44°55' E 020°20'1 2.2
2017-Oct-16 19:31N 44°54' E 020°21'1 2.2
2017-Oct-16 19:00N 44°53' E 020°21'1 2.4
2017-Oct-16 18:29N 44°52' E 020°22'1 2.2
2017-Oct-16 18:00N 44°52' E 020°24'1 2.0
2017-Oct-16 17:31N 44°51' E 020°25'1 2.3
2017-Oct-16 17:00N 44°50' E 020°26'1 2.5
2017-Oct-16 16:30N 44°50' E 020°28'2 2.6
2017-Oct-16 15:43N 44°50' E 020°31'1 2.7
2017-Oct-16 15:30N 44°50' E 020°32'1 2.8
2017-Oct-16 15:00N 44°51' E 020°33'3 2.7
2017-Oct-16 14:00N 44°51' E 020°37'1 1.9
2017-Oct-16 13:30N 44°51' E 020°38'0 0.8
2017-Oct-16 13:00N 44°51' E 020°39'0 0.6
2017-Oct-16 12:30N 44°51' E 020°38'1 1.5
2017-Oct-16 12:00N 44°51' E 020°38'0 0.0
2017-Oct-16 11:30N 44°51' E 020°38'0 0.0
2017-Oct-16 11:00N 44°51' E 020°38'0 0.0
2017-Oct-16 10:30N 44°51' E 020°38'0 0.0
2017-Oct-16 10:00N 44°51' E 020°38'0 0.0
2017-Oct-16 09:30N 44°51' E 020°38'0 0.0
2017-Oct-16 09:00N 44°51' E 020°38'0 0.0
2017-Oct-16 08:30N 44°51' E 020°38'0 0.0
2017-Oct-16 08:00N 44°51' E 020°38'0 0.2
2017-Oct-16 07:30N 44°51' E 020°38'1 1.9
2017-Oct-16 07:00N 44°50' E 020°38'1 2.8
2017-Oct-16 06:30N 44°49' E 020°38'2 3.0
2017-Oct-16 06:00N 44°47' E 020°38'2 2.7
2017-Oct-16 05:26N 44°46' E 020°38'1 2.8
2017-Oct-16 05:01N 44°45' E 020°39'4 2.8
2017-Oct-16 03:44N 44°42' E 020°42'1 2.8
2017-Oct-16 03:31N 44°42' E 020°43'1 1.5
2017-Oct-16 03:00N 44°41' E 020°44'0 0.0
2017-Oct-16 02:31N 44°41' E 020°44'0 0.0
2017-Oct-16 02:01N 44°41' E 020°44'0 0.0
2017-Oct-16 01:31N 44°41' E 020°44'0 0.0
2017-Oct-16 01:01N 44°41' E 020°44'0 0.0
2017-Oct-16 00:31N 44°41' E 020°44'0 0.0
2017-Oct-16 00:01N 44°41' E 020°44'0 0.0
2017-Oct-15 23:31N 44°41' E 020°44'0 0.0
2017-Oct-15 23:01N 44°41' E 020°44'0 0.0
2017-Oct-15 22:31N 44°41' E 020°44'0 0.0
2017-Oct-15 22:00N 44°41' E 020°44'0 0.3
2017-Oct-15 21:31N 44°41' E 020°44'1 2.9
2017-Oct-15 21:00N 44°40' E 020°45'1 2.9
2017-Oct-15 20:30N 44°40' E 020°47'1 2.8
2017-Oct-15 20:00N 44°40' E 020°49'2 3.0
2017-Oct-15 19:30N 44°40' E 020°51'2 3.0
2017-Oct-15 19:01N 44°40' E 020°53'1 2.9
2017-Oct-15 18:31N 44°40' E 020°55'2 3.1
2017-Oct-15 18:00N 44°41' E 020°57'1 2.9
2017-Oct-15 17:31N 44°42' E 020°58'1 2.9
2017-Oct-15 17:01N 44°43' E 021°00'1 2.9
2017-Oct-15 16:31N 44°43' E 021°02'2 3.0
2017-Oct-15 15:47N 44°43' E 021°05'1 2.8
2017-Oct-15 15:30N 44°44' E 021°06'1 1.6
2017-Oct-15 15:00N 44°44' E 021°07'0 0.1
2017-Oct-15 14:00N 44°44' E 021°07'0 0.0
2017-Oct-15 13:31N 44°44' E 021°07'0 0.4
2017-Oct-15 13:01N 44°44' E 021°07'1 1.1
2017-Oct-15 12:31N 44°45' E 021°07'0 0.9
2017-Oct-15 12:01N 44°45' E 021°07'1 1.3
2017-Oct-15 11:30N 44°44' E 021°07'0 0.0
2017-Oct-15 11:01N 44°44' E 021°07'0 0.0
2017-Oct-15 10:31N 44°44' E 021°07'0 0.0
2017-Oct-15 10:01N 44°44' E 021°07'0 0.0
2017-Oct-15 09:31N 44°44' E 021°07'0 0.0
2017-Oct-15 08:55N 44°44' E 021°07'0 0.7
2017-Oct-15 08:31N 44°44' E 021°07'0 0.0
2017-Oct-15 08:01N 44°44' E 021°07'0 0.0
2017-Oct-15 07:31N 44°44' E 021°07'0 0.0
2017-Oct-15 07:01N 44°44' E 021°07'0 0.0
2017-Oct-15 06:31N 44°44' E 021°07'0 0.0
2017-Oct-15 06:01N 44°44' E 021°07'0 0.0
2017-Oct-15 05:31N 44°44' E 021°07'0 0.0
2017-Oct-15 05:01N 44°44' E 021°07'0 0.0
2017-Oct-15 04:31N 44°44' E 021°07'0 0.0
2017-Oct-14 23:18N 44°44' E 021°07'4 2.1
2017-Oct-14 21:27N 44°43' E 021°02'4 5.6
2017-Oct-14 20:49N 44°42' E 020°57'4 5.8
2017-Oct-14 20:11N 44°40' E 020°53'1 6.0
2017-Oct-14 20:01N 44°40' E 020°52'3 6.1
2017-Oct-14 19:30N 44°39' E 020°48'3 6.0
2017-Oct-14 19:00N 44°41' E 020°44'3 6.0
2017-Oct-14 18:30N 44°43' E 020°41'3 6.0
2017-Oct-14 18:00N 44°45' E 020°38'3 5.7
2017-Oct-14 17:30N 44°48' E 020°38'3 5.5
2017-Oct-14 17:00N 44°51' E 020°38'3 5.6
2017-Oct-14 16:30N 44°51' E 020°34'4 5.8
2017-Oct-14 15:51N 44°50' E 020°29'2 6.1
2017-Oct-14 15:30N 44°50' E 020°26'3 6.5
2017-Oct-14 15:00N 44°52' E 020°22'3 6.3
2017-Oct-14 14:30N 44°55' E 020°20'3 6.7
2017-Oct-14 14:00N 44°58' E 020°17'3 5.6
2017-Oct-14 13:30N 44°60' E 020°20'3 5.7
2017-Oct-14 13:00N 45°03' E 020°22'4 6.8
2017-Oct-14 12:29N 45°05' E 020°19'3 6.7
2017-Oct-14 12:00N 45°08' E 020°17'3 4.5
2017-Oct-14 11:23N 45°11' E 020°18'2 5.3
2017-Oct-14 11:00N 45°13' E 020°19'  
2017-Oct-10 20:21N 45°05' E 020°20'1 2.2
2017-Oct-10 20:00N 45°04' E 020°20'1 2.1
2017-Oct-10 19:30N 45°03' E 020°21'1 1.9
2017-Oct-10 19:00N 45°02' E 020°22'1 2.0
2017-Oct-10 18:30N 45°01' E 020°22'1 2.1
2017-Oct-10 18:00N 45°00' E 020°21'1 2.3
2017-Oct-10 17:30N 44°60' E 020°20'1 2.4
2017-Oct-10 17:00N 44°59' E 020°18'1 2.4
2017-Oct-10 16:30N 44°58' E 020°17'1 2.3
2017-Oct-10 16:00N 44°57' E 020°18'1 2.7
2017-Oct-10 15:30N 44°56' E 020°19'1 2.4
2017-Oct-10 15:00N 44°55' E 020°20'2 2.4
2017-Oct-10 14:00N 44°53' E 020°22'1 2.4
2017-Oct-10 13:30N 44°52' E 020°23'1 2.4
2017-Oct-10 13:00N 44°51' E 020°24'1 2.6
2017-Oct-10 12:30N 44°51' E 020°26'1 2.5
2017-Oct-10 12:00N 44°50' E 020°27'1 2.7
2017-Oct-10 11:30N 44°50' E 020°29'1 2.8
2017-Oct-10 11:00N 44°50' E 020°31'1 2.9
2017-Oct-10 10:30N 44°50' E 020°33'2 3.0
2017-Oct-10 10:00N 44°51' E 020°35'1 2.8
2017-Oct-10 09:31N 44°51' E 020°37'1 3.0
2017-Oct-10 09:00N 44°50' E 020°38'1 2.9
2017-Oct-10 08:30N 44°49' E 020°38'2 3.1
2017-Oct-10 08:00N 44°47' E 020°38'2 3.0
2017-Oct-10 07:30N 44°46' E 020°38'1 2.9
2017-Oct-10 07:00N 44°45' E 020°39'3 3.1
2017-Oct-10 05:55N 44°42' E 020°42'1 3.1
2017-Oct-10 05:30N 44°41' E 020°43'2 3.1
2017-Oct-10 05:00N 44°40' E 020°45'2 3.0
2017-Oct-10 04:29N 44°40' E 020°47'2 2.9
2017-Oct-10 03:55N 44°40' E 020°49'2 3.1
2017-Oct-10 03:26N 44°40' E 020°51'1 0.1
2017-Oct-09 21:09N 44°40' E 020°53'0 0.0
2017-Oct-09 21:00N 44°40' E 020°53'0 0.7
2017-Oct-09 20:30N 44°40' E 020°53'1 3.0
2017-Oct-09 20:00N 44°40' E 020°55'4 3.1
2017-Oct-09 18:48N 44°43' E 020°59'1 3.0
2017-Oct-09 18:30N 44°43' E 021°00'2 3.0
2017-Oct-09 18:00N 44°43' E 021°02'0 0.3
2017-Oct-09 17:30N 44°43' E 021°02'2 3.0
2017-Oct-09 17:00N 44°41' E 021°03'1 0.1
2017-Oct-08 19:31N 44°40' E 021°03'0 4.5
2017-Oct-08 19:30N 44°40' E 021°03'2 3.8
2017-Oct-08 19:00N 44°42' E 021°02'1 2.6
2017-Oct-08 18:31N 44°43' E 021°01'2 4.7
2017-Oct-08 18:00N 44°42' E 020°58'2 3.7
2017-Oct-08 17:30N 44°41' E 020°56'2 4.4
2017-Oct-08 17:00N 44°40' E 020°54'2 4.6
2017-Oct-08 16:30N 44°39' E 020°51'2 4.6
2017-Oct-08 16:00N 44°39' E 020°47'2 4.6
2017-Oct-08 15:30N 44°40' E 020°44'2 4.4
2017-Oct-08 15:00N 44°42' E 020°42'2 4.4
2017-Oct-08 14:30N 44°44' E 020°41'2 4.5
2017-Oct-08 14:00N 44°45' E 020°38'2 4.2
2017-Oct-08 13:30N 44°47' E 020°38'2 4.4
2017-Oct-08 13:00N 44°49' E 020°39'2 3.2
2017-Oct-08 12:30N 44°51' E 020°38'1 1.2
2017-Oct-08 12:00N 44°51' E 020°38'0 0.0
2017-Oct-08 11:30N 44°51' E 020°38'0 0.0
2017-Oct-08 11:00N 44°51' E 020°38'0 0.0
2017-Oct-08 10:30N 44°51' E 020°38'0 0.9
2017-Oct-08 10:00N 44°51' E 020°38'2 4.2
2017-Oct-08 09:30N 44°51' E 020°35'2 4.6
2017-Oct-08 09:00N 44°50' E 020°32'2 4.4
2017-Oct-08 08:30N 44°50' E 020°29'2 4.6
2017-Oct-08 08:00N 44°51' E 020°26'2 4.9
2017-Oct-08 07:30N 44°52' E 020°23'2 4.7
2017-Oct-08 07:00N 44°54' E 020°21'2 4.8
2017-Oct-08 06:30N 44°56' E 020°19'2 5.0
2017-Oct-08 06:00N 44°58' E 020°17'2 4.4
2017-Oct-08 05:30N 44°60' E 020°19'2 5.0
2017-Oct-08 05:00N 45°01' E 020°22'2 5.0
2017-Oct-08 04:30N 45°03' E 020°21'3 5.1
2017-Oct-08 04:00N 45°05' E 020°19'3 5.0
2017-Oct-08 03:30N 45°08' E 020°17'1 1.6
2017-Oct-08 03:00N 45°08' E 020°17'0 0.0
2017-Oct-08 02:30N 45°08' E 020°17'0 0.0
2017-Oct-08 02:00N 45°08' E 020°17'0 0.0
2017-Oct-08 01:30N 45°08' E 020°17'0 0.0
2017-Oct-08 01:00N 45°08' E 020°17'0 0.0
2017-Oct-08 00:31N 45°08' E 020°17'0 0.0
2017-Oct-08 00:00N 45°08' E 020°17'0 0.0
2017-Oct-07 23:30N 45°08' E 020°17'0 0.0
2017-Oct-07 23:00N 45°08' E 020°17'0 0.0
2017-Oct-07 22:30N 45°08' E 020°17'0 0.0
2017-Oct-07 22:01N 45°08' E 020°17'0 0.0
2017-Oct-07 21:30N 45°08' E 020°17'0 0.0
2017-Oct-07 21:00N 45°08' E 020°17'1 1.5
2017-Oct-07 20:30N 45°09' E 020°17'2 3.2
2017-Oct-07 19:59N 45°11' E 020°17'2 3.4
2017-Oct-07 19:30N 45°12' E 020°19'2 3.8
2017-Oct-07 19:00N 45°14' E 020°18'  

Dump ship's entire track history